1MA0 weather

Jordan Hospital Heliport
Plymouth, Massachusetts, United States

Public forecast

Using degrees Fahrenheit for public forecast. Weather courtesy of forecast.io.

METAR (pilot weather report)

Closest report is Plymouth Municipal Airport, 4.1 nm (7.7 km) WSW. Retrieved 2019/07/23 02:52 UTC (1 hour ago):

KPYM 230252Z AUTO 07011G20KT 7SM -RA BKN006 BKN060 OVC080 21/20 A2976 RMK AO2 LTG DSNT NE AND E TSE08 SLP076 P0010 60048 T02060200 58010

TAF (pilot weather forecast)

Forecast is more than 12 hours old.

Closest forecast is Cape Cod Coast Guard Air Station, 17.9 nm (33.1 km) SSE. Retrieved 2019/07/22 00:34 UTC (1 day ago):

TAF KFMH 222332Z 2300/2324 03008KT P6SM VCSH BKN015 OVC060 FM230100 10007KT 6SM SHRA BR VCTS OVC015CB FM230500 01006KT 6SM -SHRA BR OVC004 FM231400 07008KT 1 1/2SM SHRA BR VCTS OVC008CB FM231700 04010G17KT 2SM SHRA BR VCTS OVC003CB FM231900 36011KT 4SM -SHRA OVC003